Portada
METAR-TAF:

METAR-TAF

Aeroports :

Nagpur, Índia

latitud: 21-06N, longitud: 079-03E, altitud: 308 m

Observació

L'informe es va fer fa 1 hora i 6 minuts, a les 19:00 UTC
Vent 2 kt del Nord
Temperatura 14°C
Humitat 58%
Pressió 1016 hPa
Visibilitat: 3000 m
calitja

METAR: VANP 261900Z 01002KT 3000 HZ NSC 14/06 Q1016 NOSIG

Hora: 01:36 (20:06 UTC)

Pronòstic

L'informe es va fer fa 3 hores i 6 minuts, a les 17:00 UTC
Pronòstic vàlid del 26 a les 18 UTC al 27 a les 03 UTC
Vent 3 kt del Nord
Visibilitat: 2000 m
calitja
Evolucionant progressivament
l' 27 a les 01 UTC al 27 a les 03 UTC
Vent 4 kt del Nord
Visibilitat: 1500 m
Escasses núvols a una alçada de 10000 ft

TAF: VANP 261700Z 2618/2703 01003KT 2000 HZ NSC BECMG 2701/2703 01004KT 1500 MIFG/BR FEW100

Observacions i pronòstics meteorològics de més de 4000 aeroports (METAR i TAF).

Les estacions disponibles són els punts grocs i vermells al mapa.

Posi el ratolí al punt desitjat per veure el nom de l'estació.

Feu clic per veure les observacions i els pronòstics meteorològics.

Per canviar el mapa: feu clic els botons verds amb una creu de color negre per apropar; al botó verd amb un guió per allunyar la imatge; o en les fletxes verdes per a mapes adjacents.


METAR-TAF: